Weather observations for the past three days for
Richland Airport
Imperial (Metric)
Date Time (pdt) Wind (mph) Vis. (mi.) Weather Sky Cond. Temperature (ºF) Relative Humidity Wind Chill (°F) Heat Index (°F) Pressure Precipitation (in)
Air Dwpt 6 hour altimeter (in) sea level (mb) 1 hr 3 hr 6 hr
Max. Min.
05 16:15 SW 12 10.00 Fair CLR 77 50.5 40% 78 29.98 0.0
05 15:55 SW 6 10.00 Fair CLR 76.5 47.3 36% 78 29.98 0.0
05 15:35 W 6 10.00 Fair CLR 76.8 46.4 34% 78 29.98 0.0
05 15:15 W 6 10.00 Fair CLR 76.1 46.8 35% 78 29.99 0.0
05 14:55 W 5 10.00 Partly Cloudy SCT120 75.9 46.9 36% 78 29.99 0.0
05 14:35 W 6 10.00 Mostly Cloudy BKN120 76.6 46.6 35% 78 30.01 0.0
05 14:15 W 9 10.00 Partly Cloudy SCT120 75.7 46.6 36% 78 30.01 0.0
05 13:55 W 9 10.00 Partly Cloudy SCT120 75.4 46.9 37% 77 30.01 0.0
05 13:35 W 6 10.00 Partly Cloudy SCT120 73.8 49.3 42% 30.01 0.0
05 13:15 W 8 10.00 Partly Cloudy SCT120 73.4 49.3 43% 30.02 0.0
05 12:55 SW 6 10.00 Fair CLR 72.7 48.9 43% 30.02 0.0
05 10:55 N 6 10.00 Fair CLR 68.4 45.9 68.9 55.4 45% 30.05 0.0
05 10:35 NW 6 10.00 Fair CLR 68.4 46.6 46% 30.05 0.0
05 10:15 NW 8 10.00 Fair CLR 67.5 46.9 48% 30.06 0.0
05 09:55 N 6 10.00 Fair CLR 67.6 47.1 48% 30.06 0.0
05 09:35 N 6 10.00 Fair CLR 66.2 47.8 52% 30.05 0.0
05 09:15 W 7 10.00 Fair CLR 63.9 51.3 64% 30.04 0.0
05 08:55 W 6 10.00 Partly Cloudy SCT100 62.4 50.9 66% 30.04 0.0
05 08:35 Calm 10.00 Mostly Cloudy BKN090 60.8 50.2 68% 30.05 0.0
05 08:15 Calm 10.00 Overcast OVC090 59.9 49.5 69% 30.05 0.0
05 07:55 NW 3 10.00 Overcast OVC090 59.2 50 72% 30.05 0.0
05 07:35 Calm 10.00 Mostly Cloudy BKN090 BKN120 57.6 49.1 74% 30.06 0.0
05 07:15 Calm 10.00 Overcast BKN090 OVC120 58.3 48 69% 30.05 0.0
05 06:55 Calm 10.00 Overcast OVC090 56.3 48.2 74% 30.04 0.0
05 06:35 Calm 10.00 Overcast OVC090 56.5 47.5 72% 30.03 0.0
05 06:15 SW 3 10.00 Mostly Cloudy BKN090 BKN110 56.3 46.9 71% 30.03 0.0
05 05:55 Calm 10.00 Mostly Cloudy BKN100 BKN120 56.7 47.3 71% 30.02 0.0
05 05:35 NW 3 10.00 Overcast OVC100 55.8 48.2 76% 30.01 0.0
05 05:15 Calm 10.00 Mostly Cloudy BKN100 BKN120 55.4 48.7 78% 30.01 0.0
05 04:55 W 5 10.00 Mostly Cloudy BKN090 56.5 49.3 58.6 55.6 77% 30.01 0.0
05 04:35 W 3 10.00 Overcast OVC090 57.7 49.1 73% 30.01 0.0
05 04:15 W 5 10.00 Overcast OVC100 58.1 48.2 70% 30.01 0.0
05 03:55 SW 3 10.00 Overcast OVC100 57.2 47.7 71% 30.01 0.0
05 03:35 Calm 10.00 Overcast OVC110 58.1 48 69% 30.01 0.0
05 03:15 N 3 10.00 Overcast OVC120 58.5 47.3 67% 30.01 0.0
05 02:55 N 6 10.00 Mostly Cloudy BKN110 57.7 48.7 72% 30 0.0
05 02:35 NW 6 10.00 Mostly Cloudy BKN110 57.7 48.6 72% 30 0.0
05 02:15 NW 5 10.00 Mostly Cloudy BKN110 57.2 48.2 72% 30 0.0
05 01:55 NW 5 10.00 Partly Cloudy SCT120 57.7 47.7 69% 30 0.0
05 01:35 NW 3 10.00 Partly Cloudy SCT120 57.7 47.1 68% 29.99 0.0
05 01:15 Calm 10.00 Partly Cloudy SCT120 57.6 46.6 67% 29.99 0.0
05 00:55 NW 3 10.00 Fair CLR 57.6 47.7 70% 29.98 0.0
05 00:35 Calm 10.00 Partly Cloudy SCT120 56.8 46.9 70% 29.98 0.0
05 00:15 Calm 10.00 Partly Cloudy SCT120 56.5 47.7 72% 29.98 0.0
04 23:55 Calm 10.00 Fair CLR 56.5 49.6 78% 29.97 0.0
04 23:35 W 3 10.00 Fair CLR 56.3 49.3 77% 29.97 0.0
04 23:15 NW 5 10.00 Fair CLR 57.4 48.7 73% 29.96 0.0
04 22:55 Calm 10.00 Fair CLR 56.8 49.1 76.6 56.1 75% 29.96 0.0
04 22:35 W 3 10.00 Fair CLR 56.5 48.6 75% 29.95 0.0
04 22:15 W 8 10.00 Fair CLR 58.6 49.1 71% 29.95 0.0
04 21:55 W 9 10.00 Partly Cloudy SCT120 59.5 49.5 69% 29.95 0.0
04 21:35 W 9 10.00 Mostly Cloudy BKN120 62.1 49.6 64% 29.95 0.0
04 21:15 W 9 10.00 Mostly Cloudy BKN120 63.7 49.5 60% 29.95 0.0
04 20:55 W 9 10.00 Fair CLR 64 49.5 59% 29.94 0.0
04 20:35 W 10 10.00 Partly Cloudy SCT120 65.3 48.4 55% 29.94 0.0
04 20:15 W 3 10.00 Partly Cloudy SCT110 66 41 40% 29.93 0.0
04 19:55 Calm 10.00 Fair CLR 68.4 40.3 36% 29.92 0.0
04 19:35 Calm 10.00 Partly Cloudy SCT110 67.6 42.3 40% 29.92 0.0
04 19:15 Calm 5.00 Mostly Cloudy with Haze BKN110 69.3 43.5 40% 29.92 0.0
04 18:55 Calm 10.00 Overcast OVC120 72 43.5 36% 29.92 0.0
04 18:35 N 3 10.00 Partly Cloudy SCT120 73 40.1 30% 29.92 0.0
04 18:15 NE 3 10.00 Fair CLR 74.5 39 28% 29.91 0.0
04 17:55 NE 3 10.00 Fair CLR 75.9 39 26% 77 29.91 0.0
04 17:35 NE 5 10.00 Fair CLR 75.9 38.7 26% 77 29.91 0.0
04 17:15 NE 6 10.00 Fair CLR 76.3 38.8 26% 77 29.91 0.0
04 16:55 E 6 10.00 Fair CLR 76.1 39.9 77.4 64.8 27% 77 29.91 0.0
04 16:35 NE 6 10.00 Partly Cloudy SCT110 77 39.9 26% 77 29.91 0.0
04 16:15 N 7 10.00 Partly Cloudy SCT110 76.6 42.3 29% 77 29.91 0.0
04 15:55 N 3 10.00 Fair CLR 74.8 42.3 31% 29.91 0.0
04 15:35 E 7 10.00 Fair CLR 75.4 42.6 31% 77 29.91 0.0
04 15:15 E 7 10.00 Fair CLR 74.7 42.3 31% 29.92 0.0
04 14:55 E 5 10.00 Fair CLR 75.2 43.5 32% 77 29.92 0.0
04 14:35 NE 5 10.00 Fair CLR 74.3 43.9 34% 29.92 0.0
04 14:15 Calm 10.00 Fair CLR 74.1 44.4 35% 29.92 0.0
04 13:55 N 3 10.00 Fair CLR 73.6 44.6 36% 29.92 0.0
04 13:35 E 5 10.00 Fair CLR 72.5 43.2 35% 29.92 0.0
04 13:15 Calm 10.00 Fair CLR 72.1 43.5 36% 29.92 0.0
04 12:55 E 7 10.00 Fair CLR 71.4 44.1 37% 29.93 0.0
04 12:35 Calm 10.00 Fair CLR 70.3 44.1 39% 29.93 0.0
04 12:15 Calm 10.00 Fair CLR 69.3 43 39% 29.94 0.0
04 11:55 Calm 10.00 Fair CLR 68.7 44.8 42% 29.94 0.0
04 11:35 SE 3 10.00 Fair CLR 68.2 45.3 44% 29.95 0.0
04 11:15 Calm 10.00 Fair CLR 65.8 45.3 48% 29.94 0.0
04 10:55 Calm 10.00 Fair CLR 65.3 46 65.3 46.4 50% 29.94 0.0
04 10:35 Calm 10.00 Fair CLR 63.1 46.6 55% 29.94 0.0
04 10:15 Calm 10.00 Fair CLR 61.5 48.2 62% 29.94 0.0
04 09:55 Calm 10.00 Fair CLR 60.4 48 64% 29.94 0.0
04 09:35 Calm 10.00 Fair CLR 58.8 48.9 70% 29.94 0.0
04 09:15 Calm 10.00 Partly Cloudy SCT100 56.5 49.1 76% 29.94 0.0
04 08:55 Calm 10.00 Mostly Cloudy BKN100 55.4 49.6 81% 29.94 0.0
04 08:35 Calm 10.00 Mostly Cloudy SCT075 BKN090 54.9 49.3 82% 29.94 0.0
04 08:15 Calm 10.00 Mostly Cloudy BKN075 BKN090 54.1 49.1 83% 29.93 0.0
04 07:55 Calm 10.00 Mostly Cloudy SCT075 BKN090 54.1 48.7 82% 29.92 0.0
04 07:35 Calm 10.00 Partly Cloudy SCT090 51.1 47.5 88% 29.91 0.0
04 07:15 W 3 10.00 Fair CLR 49.3 47.5 94% 29.91 0.0
04 06:55 W 3 10.00 Fair CLR 47.7 45.9 94% 29.89 0.0
04 06:35 Calm 10.00 Fair CLR 47.3 45.5 94% 29.88 0.0
04 06:15 Calm 10.00 Partly Cloudy SCT080 SCT090 49.8 47.3 91% 29.88 0.0
04 05:55 Calm 10.00 Partly Cloudy SCT090 47.1 45 92% 29.88 0.0
04 05:35 Calm 10.00 Partly Cloudy SCT075 47.3 45.7 94% 29.87 0.0
04 05:15 Calm 10.00 Mostly Cloudy BKN075 47.7 45.5 92% 29.87 0.0
04 04:55 Calm 10.00 Partly Cloudy SCT075 50.4 46.9 63.1 47.3 88% 29.87 0.0
04 04:35 N 3 10.00 Fair CLR 48.9 45.3 87% 29.86 0.0
04 04:15 Calm 10.00 Fair CLR 49.5 45.5 86% 29.86 0.0
04 03:55 Calm 10.00 Partly Cloudy SCT120 50.7 46.2 85% 29.85 0.0
04 03:35 Calm 10.00 Partly Cloudy SCT120 51.8 45.7 80% 29.85 0.0
04 03:15 Calm 10.00 Fair CLR 51.8 45.7 80% 29.84 0.0
04 02:55 Calm 10.00 Fair CLR 53.8 46.6 77% 29.83 0.0
04 02:35 E 3 10.00 Fair CLR 54.5 46.6 75% 29.82 0.0
04 02:15 NE 5 10.00 Fair CLR 54 46.6 76% 29.82 0.0
04 01:55 N 5 10.00 Fair CLR 51.8 45 78% 29.82 0.0
04 01:35 W 3 10.00 Fair CLR 53.8 44.2 70% 29.82 0.0
04 01:15 Calm 10.00 Partly Cloudy SCT080 56.5 44.6 65% 29.81 0.0
04 00:55 E 6 10.00 Partly Cloudy SCT080 58.5 44.6 60% 29.81 0.0
04 00:35 E 3 10.00 Partly Cloudy SCT120 59.2 43.9 57% 29.82 0.0
04 00:15 SE 3 10.00 Mostly Cloudy SCT065 BKN080 BKN120 61.9 43.5 51% 29.81 0.0
03 23:55 E 5 10.00 Overcast SCT065 SCT080 OVC120 62.8 42.8 48% 29.82 0.0
03 23:35 E 5 10.00 Overcast OVC110 62.2 42.8 49% 29.81 0.0
03 23:15 SE 5 10.00 Overcast OVC110 63 42.1 47% 29.81 0.0
03 22:55 S 3 10.00 Overcast SCT075 SCT085 OVC110 61.5 43.3 71.6 61.3 51% 29.81 0.0
03 22:35 S 3 10.00 Mostly Cloudy SCT085 BKN110 63.7 40.8 43% 29.81 0.0
03 22:15 SE 9 10.00 Partly Cloudy SCT085 64.6 40.8 42% 29.8 0.0
03 21:55 SE 9 10.00 Overcast BKN085 OVC110 65.5 41.9 42% 29.79 0.0
03 21:35 SE 7 10.00 Mostly Cloudy BKN110 65.5 42.8 44% 29.79 0.0
03 21:15 SE 3 10.00 Fair CLR 65.8 42.1 42% 29.78 0.0
03 20:55 SE 7 10.00 Fair CLR 66.7 41.9 41% 29.78 0.0
03 20:35 SE 5 10.00 Fair CLR 67.1 43.2 42% 29.78 0.0
03 20:15 E 6 10.00 Fair CLR 67.5 42.6 41% 29.77 0.0
03 19:55 SE 8 10.00 Fair CLR 68.2 41 37% 29.77 0.0
03 19:35 E 6 10.00 Fair CLR 68.9 41.7 37% 29.76 0.0
03 19:15 SE 9 10.00 Fair CLR 69.6 41.7 36% 29.76 0.0
03 18:55 SE 7 10.00 Fair CLR 69.8 41 35% 29.76 0.0
03 18:35 SE 8 10.00 Fair CLR 70 40.8 35% 29.77 0.0
03 18:15 SE 7 10.00 Fair CLR 70.2 39.9 33% 29.77 0.0
03 17:55 S 7 10.00 Fair CLR 70.5 39.2 32% 29.77 0.0
03 17:35 S 8 10.00 Fair CLR 71.1 38.8 31% 29.77 0.0
03 17:15 S 7 10.00 Fair CLR 71.6 38.8 30% 29.78 0.0
03 16:55 S 9 10.00 Fair CLR 71.6 38.3 74.5 67.5 30% 29.78 0.0
03 16:35 S 9 10.00 Fair CLR 72.3 38.1 29% 29.78 0.0
03 16:15 S 12 10.00 Fair CLR 72.9 38.8 29% 29.78 0.0
03 15:55 S 8 10.00 Fair CLR 73.6 40.1 30% 29.79 0.0
03 15:35 S 8 10.00 Fair CLR 73.9 39.9 29% 29.8 0.0
03 15:15 SE 8 10.00 Fair CLR 73.6 40.1 30% 29.8 0.0
03 14:55 S 9 10.00 Fair CLR 71.6 40.1 32% 29.8 0.0
03 14:35 S 9 10.00 Fair CLR 72.7 40.3 31% 29.81 0.0
03 14:15 S 8 10.00 Fair CLR 72 39.6 31% 29.82 0.0
03 13:55 SE 8 10.00 Fair CLR 70.9 39.9 33% 29.82 0.0
03 13:35 S 5 10.00 Fair CLR 69.8 40.6 35% 29.82 0.0
03 13:15 Calm 10.00 Fair CLR 68.9 43.5 40% 29.83 0.0
03 12:55 SE 6 10.00 Fair CLR 69.8 43.7 39% 29.83 0.0
03 12:35 S 7 10.00 Fair CLR 69.3 43.7 40% 29.84 0.0
03 12:15 S 8 10.00 Fair CLR 69.6 45.3 42% 29.84 0.0
03 11:55 S 9 10.00 Fair CLR 69.1 45.1 42% 29.85 0.0
03 11:35 S 10 10.00 Fair CLR 69.4 45.1 42% 29.85 0.0
03 11:15 S 8 10.00 Fair CLR 68.4 43.9 41% 29.85 0.0
03 10:55 S 8 10.00 Fair CLR 68.5 43.9 68.5 52.3 41% 29.85 0.0
03 10:35 S 7 10.00 Fair CLR 66.7 46 47% 29.85 0.0
03 10:15 SW 9 10.00 Fair CLR 65.3 46.9 52% 29.86 0.0
03 09:55 S 5 10.00 Fair CLR 64.4 48.4 56% 29.85 0.0
03 09:35 SW 8 10.00 Fair CLR 63.1 48.6 59% 29.85 0.0
03 09:15 SW 7 10.00 Fair CLR 62.8 49.3 62% 29.86 0.0
03 08:55 SW 8 10.00 Fair CLR 61.9 49.1 63% 29.85 0.0
03 08:35 S 6 10.00 Fair CLR 60.8 49.5 66% 29.86 0.0
03 08:15 Calm 10.00 Fair CLR 58.8 49.5 71% 29.86 0.0
03 07:55 SW 3 10.00 Fair CLR 59.4 48.6 68% 29.86 0.0
03 07:35 SW 6 10.00 Fair CLR 59 48.2 68% 29.85 0.0
03 07:15 SW 7 10.00 Fair CLR 58.5 47.8 68% 29.84 0.0
03 06:55 SW 3 10.00 Fair CLR 55.4 48.2 77% 29.84 0.0
03 06:35 Calm 10.00 Fair CLR 54.7 48.7 81% 29.84 0.0
03 06:15 Calm 10.00 Fair CLR 54.1 50 86% 29.83 0.0
03 05:55 Calm 10.00 Fair CLR 54 48.9 83% 29.83 0.0
03 05:35 S 7 10.00 Fair CLR 56.3 49.8 79% 29.82 0.0
03 05:15 S 9 10.00 Fair CLR 56.3 50.4 81% 29.82 0.0
03 04:55 S 9 10.00 Fair CLR 57.2 50.9 63 56.3 80% 29.82 0.0
03 04:35 S 7 10.00 Fair CLR 57 50.7 80% 29.82 0.0
03 04:15 SW 6 10.00 Fair CLR 56.8 50.7 80% 29.82 0.0
03 03:55 W 3 10.00 Fair CLR 58.5 52.5 81% 29.81 0.0
03 03:35 Calm 10.00 Fair CLR 59.2 51.8 77% 29.8 0.0
03 03:15 S 9 10.00 Fair CLR 59.2 51.8 77% 29.79 0.0
03 02:55 S 9 10.00 Fair CLR 59.9 52.3 76% 29.79 0.0
03 02:35 S 9 G 16 10.00 Mostly Cloudy SCT070 BKN110 60.3 53.6 79% 29.79 0.0
03 02:15 S 13 10.00 Overcast BKN090 OVC110 60.8 53.4 77% 29.79 0.0
03 01:55 S 8 10.00 Overcast SCT060 OVC090 60.8 53.6 77% 29.79 0.0
03 01:35 S 3 10.00 Mostly Cloudy BKN060 BKN090 BKN120 61.2 53.6 76% 29.78 0.0
03 01:15 S 7 10.00 Mostly Cloudy SCT095 BKN120 61 53.6 77% 29.78 0.0
03 00:55 S 6 10.00 Overcast OVC110 61.2 54.1 78% 29.77 0.0
03 00:35 S 10 10.00 Overcast OVC090 60.8 54.9 81% 29.77 0.0
03 00:15 S 10 G 16 10.00 Light Rain OVC085 60.8 55.8 84% 29.76 0.0
02 23:55 S 10 G 16 10.00 Light Rain SCT070 OVC085 61.2 55 80% 29.76 0.0
02 23:35 S 8 G 13 10.00 Light Rain BKN070 OVC085 61.9 54.5 77% 29.76 0.0
02 23:15 S 15 G 23 10.00 Light Rain OVC085 62.6 54.1 74% 29.75 0.0
02 22:55 S 18 G 23 10.00 Overcast OVC085 62.8 54 70.7 62.8 73% 29.75 0.0 0.01
02 22:35 S 16 G 21 10.00 Light Rain OVC075 63.5 54.1 72% 29.76 0.0
02 22:15 S 17 G 24 10.00 Light Rain BKN075 OVC085 63.9 54.1 71% 29.76 0.0
02 21:55 S 13 G 20 10.00 Light Rain SCT075 OVC085 64.6 54.1 69% 29.76 0.0 0.01
02 21:35 S 10 10.00 Light Rain OVC085 64.4 54.9 71% 29.76 0.0 0.01
02 21:15 S 8 G 16 10.00 Light Rain OVC085 64.6 54.7 70% 29.76 0.0
02 20:55 S 12 G 16 10.00 Light Rain OVC085 64.6 54.7 70% 29.76 0.0
02 20:35 S 8 10.00 Light Rain OVC085 64.6 55 71% 29.76 0.0
02 20:15 S 8 10.00 Overcast SCT070 OVC085 64.9 54.7 70% 29.76 0.0
02 19:55 S 8 10.00 Overcast OVC085 64.4 54.9 71% 29.75 0.0
02 19:35 S 7 10.00 Light Rain OVC095 64.4 54.3 70% 29.75 0.0
02 19:15 S 10 10.00 Light Rain OVC095 64 54.5 71% 29.75 0.0
02 18:55 S 14 G 23 10.00 Light Rain OVC095 66.4 52.3 61% 29.75 0.0
02 18:35 S 16 G 23 10.00 Light Rain OVC095 68 50.5 54% 29.74 0.0
02 18:15 SW 10 G 22 10.00 Overcast OVC095 68.9 49.6 50% 29.74 0.0
02 17:55 S 15 G 23 10.00 Overcast SCT070 OVC095 69.3 49.1 49% 29.73 0.0
02 17:35 SW 17 G 25 10.00 Overcast SCT075 OVC095 68.9 49.6 50% 29.73 0.0
02 17:15 SW 15 G 25 10.00 Overcast SCT070 OVC095 69.3 49.1 49% 29.74 0.0
02 16:55 SW 16 G 28 10.00 Mostly Cloudy BKN085 BKN120 70.7 47.1 80.2 68.9 43% 29.73 0.0
02 16:35 SW 15 G 23 10.00 Mostly Cloudy SCT085 BKN100 BKN120 71.6 46.8 41% 29.73 0.0
Date Time (pdt) Wind (mph) Vis. (mi.) Weather Sky Cond. Air Dwpt Max. Min. Relative Humidity Wind Chill (°F) Heat Index (°F) altimeter (in) sea level (mb) 1 hr 3 hr 6 hr
6 hour
Temperature (ºF) Pressure Precipitation (in)